Time;durP1;ratioP1;P1;durP2;ratioP2;P2;SDS_P1;SDS_P2;PMS_P1;PMS_P2;Temp;Humidity;BMP_temperature;BMP_pressure;BME280_temperature;BME280_humidity;BME280_pressure;Samples;Min_cycle;Max_cycle;Signal;HPM_P1;HPM_P2
2023/01/10 00:00:36;;;;;;;3.65;1.08;;;21.60;49.70;;;;;;5049295;28;20098;-58
2023/01/10 00:03:09;;;;;;;3.35;1.10;;;21.60;49.80;;;;;;5050221;28;20052;-58
2023/01/10 00:05:36;;;;;;;2.88;1.02;;;21.60;49.80;;;;;;5080938;28;20076;-60
2023/01/10 00:08:02;;;;;;;0.98;0.80;;;21.60;49.80;;;;;;5049038;28;20048;-58
2023/01/10 00:10:29;;;;;;;2.15;0.90;;;21.50;49.70;;;;;;5049307;28;20049;-59
2023/01/10 00:15:40;;;;;;;1.95;0.95;;;21.50;49.70;;;;;;5080391;28;20408;-56
2023/01/10 00:18:05;;;;;;;2.15;0.80;;;21.50;49.70;;;;;;5081127;28;20041;-57
2023/01/10 00:20:31;;;;;;;3.17;0.90;;;21.40;50.30;;;;;;5081816;28;20124;-59
2023/01/10 00:22:57;;;;;;;3.88;0.93;;;21.40;49.60;;;;;;5049643;28;20151;-57
2023/01/10 00:25:23;;;;;;;3.80;0.82;;;21.40;50.30;;;;;;5032392;28;20041;-58
2023/01/10 00:28:03;;;;;;;4.20;1.05;;;21.40;49.60;;;;;;5049903;28;20473;-58
2023/01/10 00:30:29;;;;;;;3.65;1.13;;;21.40;49.60;;;;;;5080369;28;20486;-58
2023/01/10 00:32:55;;;;;;;2.78;1.02;;;21.30;49.60;;;;;;5050329;28;20059;-58
2023/01/10 00:35:22;;;;;;;3.17;0.80;;;21.40;49.60;;;;;;5049811;28;20041;-58
2023/01/10 00:37:47;;;;;;;2.78;1.00;;;21.40;49.50;;;;;;5050473;28;20051;-57
2023/01/10 00:40:13;;;;;;;2.60;0.98;;;21.30;49.50;;;;;;5051667;28;20040;-58
2023/01/10 00:45:25;;;;;;;2.20;0.90;;;21.30;49.50;;;;;;5050448;28;20098;-59
2023/01/10 00:47:51;;;;;;;2.92;0.93;;;21.30;49.50;;;;;;5065470;28;20041;-60
2023/01/10 00:50:17;;;;;;;3.50;1.10;;;21.30;49.50;;;;;;5048695;28;20048;-58
2023/01/10 00:52:43;;;;;;;2.78;0.77;;;21.20;49.30;;;;;;5050441;28;20049;-58
2023/01/10 00:55:09;;;;;;;3.40;1.33;;;21.20;49.40;;;;;;5080772;28;20044;-57
2023/01/10 00:57:34;;;;;;;2.50;1.00;;;21.20;50.10;;;;;;5048933;28;20748;-58
2023/01/10 01:00:00;;;;;;;2.60;1.02;;;21.20;49.40;;;;;;5050881;28;20401;-57
2023/01/10 01:02:26;;;;;;;2.10;0.82;;;21.20;49.40;;;;;;5048400;28;20065;-57
2023/01/10 01:04:52;;;;;;;1.75;0.85;;;21.20;49.40;;;;;;5082374;28;20493;-59
2023/01/10 01:07:17;;;;;;;1.70;0.82;;;21.10;49.30;;;;;;5047848;28;20085;-58
2023/01/10 01:12:28;;;;;;;2.38;1.00;;;21.10;49.20;;;;;;5051914;28;20037;-59
2023/01/10 01:14:53;;;;;;;2.50;0.90;;;21.10;49.30;;;;;;5051115;28;20060;-59
2023/01/10 01:17:19;;;;;;;3.90;1.40;;;21.10;49.20;;;;;;5052532;28;20036;-58
2023/01/10 01:19:45;;;;;;;2.40;1.00;;;21.10;49.30;;;;;;5039169;28;20098;-57
2023/01/10 01:22:11;;;;;;;2.80;1.10;;;21.00;49.20;;;;;;5035526;28;20048;-59
2023/01/10 01:24:38;;;;;;;3.15;0.95;;;21.00;49.20;;;;;;5066096;28;20274;-58
2023/01/10 01:27:03;;;;;;;1.75;0.80;;;21.00;49.20;;;;;;5050717;28;20060;-57
2023/01/10 01:29:30;;;;;;;2.70;0.98;;;21.00;49.20;;;;;;5053055;28;20076;-58
2023/01/10 01:31:56;;;;;;;1.67;0.85;;;21.00;49.20;;;;;;5052187;28;20060;-58
2023/01/10 01:34:21;;;;;;;2.95;1.15;;;21.00;49.20;;;;;;5052618;28;20149;-58
2023/01/10 01:36:47;;;;;;;2.60;1.02;;;21.00;49.20;;;;;;5051315;28;20032;-58
2023/01/10 01:39:13;;;;;;;2.83;1.05;;;20.90;49.10;;;;;;5054908;28;20048;-58
2023/01/10 01:41:57;;;;;;;2.35;1.30;;;20.90;49.10;;;;;;5044513;28;20052;-59
2023/01/10 01:44:28;;;;;;;3.00;0.82;;;20.90;49.20;;;;;;5053870;28;20055;-58
2023/01/10 01:47:14;;;;;;;;;;;20.90;49.10;;;;;;5053703;28;20480;-59
2023/01/10 01:49:43;;;;;;;3.67;1.10;;;20.80;48.90;;;;;;5043312;28;19928;-58
2023/01/10 01:52:17;;;;;;;3.40;1.20;;;20.80;49.20;;;;;;5054200;28;20052;-55
2023/01/10 01:54:43;;;;;;;2.08;0.90;;;20.80;49.20;;;;;;5083413;28;20040;-57
2023/01/10 01:57:13;;;;;;;2.70;1.10;;;20.80;49.20;;;;;;5051729;28;20049;-57
2023/01/10 01:59:52;;;;;;;1.50;0.90;;;20.80;49.10;;;;;;5051601;28;20051;-56
2023/01/10 02:02:22;;;;;;;2.70;1.08;;;20.80;49.00;;;;;;5067632;28;20338;-57
2023/01/10 02:05:02;;;;;;;3.50;0.83;;;20.80;49.10;;;;;;5051978;28;20159;-57
2023/01/10 02:07:36;;;;;;;2.50;1.20;;;20.70;49.00;;;;;;5052951;28;20334;-58
2023/01/10 02:10:07;;;;;;;2.33;1.15;;;20.70;49.00;;;;;;5050756;28;20044;-59
2023/01/10 02:12:33;;;;;;;2.88;0.80;;;20.70;49.00;;;;;;5049932;28;20135;-61
2023/01/10 02:15:00;;;;;;;3.38;1.00;;;20.70;49.00;;;;;;5050213;28;20060;-60
2023/01/10 02:17:26;;;;;;;2.67;1.10;;;20.70;49.00;;;;;;5046068;28;20040;-58
2023/01/10 02:20:02;;;;;;;2.17;0.90;;;20.70;49.00;;;;;;5049925;28;20064;-57
2023/01/10 02:22:46;;;;;;;2.33;1.10;;;20.70;48.90;;;;;;5051700;28;20071;-58
2023/01/10 02:25:30;;;;;;;3.72;1.33;;;20.70;49.00;;;;;;5053845;28;20586;-58
2023/01/10 02:28:20;;;;;;;2.78;0.93;;;20.70;48.80;;;;;;5049688;28;20126;-58
2023/01/10 02:30:56;;;;;;;2.67;1.10;;;20.60;48.90;;;;;;5051430;28;20048;-57
2023/01/10 02:33:30;;;;;;;2.47;0.90;;;20.60;49.00;;;;;;5049580;28;20503;-57
2023/01/10 02:36:02;;;;;;;1.58;0.98;;;20.60;48.90;;;;;;5053224;28;20183;-57
2023/01/10 02:38:53;;;;;;;2.40;0.93;;;20.60;49.00;;;;;;5050587;28;20073;-56
2023/01/10 02:41:28;;;;;;;2.75;1.00;;;20.60;48.90;;;;;;5032649;28;20106;-61
2023/01/10 02:44:02;;;;;;;1.70;0.93;;;20.60;48.90;;;;;;5051627;28;20041;-57
2023/01/10 02:46:30;;;;;;;2.63;0.90;;;20.60;48.90;;;;;;5057890;28;20091;-58
2023/01/10 02:48:56;;;;;;;2.03;0.95;;;20.60;48.90;;;;;;5050982;28;20048;-59
2023/01/10 02:51:26;;;;;;;3.25;1.10;;;20.60;48.90;;;;;;5050155;28;20040;-59
2023/01/10 02:54:23;;;;;;;2.60;1.10;;;20.50;48.90;;;;;;5048920;28;20052;-57
2023/01/10 02:57:17;;;;;;;2.58;1.13;;;20.50;48.60;;;;;;5047063;28;20182;-57
2023/01/10 03:00:20;;;;;;;4.35;0.93;;;20.50;48.70;;;;;;5058855;28;20484;-56
2023/01/10 03:02:56;;;;;;;2.65;0.80;;;20.50;48.60;;;;;;5052965;28;20045;-57
2023/01/10 03:06:06;;;;;;;2.40;0.95;;;20.50;48.80;;;;;;5054170;28;20163;-60
2023/01/10 03:08:47;;;;;;;2.67;1.00;;;20.50;48.60;;;;;;5049889;28;20489;-56
2023/01/10 03:11:14;;;;;;;2.40;1.13;;;20.50;48.80;;;;;;5051799;28;20217;-57
2023/01/10 03:13:54;;;;;;;3.08;0.93;;;20.40;48.80;;;;;;5033988;28;20488;-58
2023/01/10 03:16:25;;;;;;;3.07;1.13;;;20.50;48.70;;;;;;5058504;28;20056;-59
2023/01/10 03:18:59;;;;;;;2.25;1.10;;;20.40;48.70;;;;;;5051911;28;20033;-58
2023/01/10 03:21:28;;;;;;;3.17;1.13;;;20.40;48.70;;;;;;5049935;28;20112;-57
2023/01/10 03:23:59;;;;;;;2.15;1.05;;;20.40;48.70;;;;;;5051106;28;20061;-56
2023/01/10 03:26:32;;;;;;;1.60;1.00;;;20.40;48.70;;;;;;5052723;28;20049;-58
2023/01/10 03:29:08;;;;;;;1.58;0.90;;;20.40;48.70;;;;;;5050098;28;20041;-57
2023/01/10 03:31:44;;;;;;;3.75;1.00;;;20.40;48.70;;;;;;5050074;28;20045;-56
2023/01/10 03:34:10;;;;;;;3.65;1.30;;;20.40;48.70;;;;;;5083719;28;20053;-56
2023/01/10 03:36:58;;;;;;;2.67;0.90;;;20.40;48.80;;;;;;5050984;28;20077;-57
2023/01/10 03:40:07;;;;;;;1.70;1.10;;;20.30;48.60;;;;;;5051756;28;20052;-56
2023/01/10 03:45:43;;;;;;;2.10;1.00;;;20.30;48.70;;;;;;5049238;28;20053;-57
2023/01/10 03:48:11;;;;;;;2.33;1.02;;;20.30;48.70;;;;;;5049683;28;20033;-57
2023/01/10 03:50:39;;;;;;;2.65;0.90;;;20.30;48.70;;;;;;5083661;27;20497;-59
2023/01/10 03:53:05;;;;;;;2.78;1.15;;;20.30;48.80;;;;;;5081488;28;20047;-57
2023/01/10 03:55:31;;;;;;;2.55;1.40;;;20.30;48.70;;;;;;5053631;28;20060;-58
2023/01/10 03:57:57;;;;;;;4.25;1.10;;;20.30;48.70;;;;;;5049671;28;20128;-56
2023/01/10 04:00:24;;;;;;;2.60;1.02;;;20.30;48.60;;;;;;5048276;28;20049;-60
2023/01/10 04:02:50;;;;;;;2.30;0.82;;;20.20;48.60;;;;;;5048180;28;20045;-57
2023/01/10 04:05:16;;;;;;;2.72;1.20;;;20.30;48.60;;;;;;5052330;28;20047;-56
2023/01/10 04:07:42;;;;;;;3.42;1.02;;;20.30;48.70;;;;;;5050884;28;20049;-56
2023/01/10 04:10:08;;;;;;;2.17;0.90;;;20.20;48.60;;;;;;5049762;28;20072;-56
2023/01/10 04:12:34;;;;;;;3.60;1.20;;;20.20;48.60;;;;;;5048373;28;20055;-57
2023/01/10 04:15:00;;;;;;;3.38;1.20;;;20.20;48.60;;;;;;5050480;28;20052;-57
2023/01/10 04:17:26;;;;;;;2.42;1.05;;;20.20;48.60;;;;;;5050245;28;20123;-56
2023/01/10 04:19:51;;;;;;;2.88;1.10;;;20.20;48.60;;;;;;5084432;28;20590;-57
2023/01/10 04:22:17;;;;;;;2.47;1.05;;;20.20;48.60;;;;;;5051163;28;20049;-56
2023/01/10 04:24:43;;;;;;;3.17;1.25;;;20.20;48.60;;;;;;5065284;28;20045;-56
2023/01/10 04:27:08;;;;;;;3.50;1.20;;;20.20;48.60;;;;;;5049328;28;20466;-57
2023/01/10 04:29:34;;;;;;;2.60;1.17;;;20.20;48.60;;;;;;5048686;28;20048;-57
2023/01/10 04:32:00;;;;;;;2.85;1.00;;;20.20;48.60;;;;;;5049397;28;20079;-57
2023/01/10 04:34:25;;;;;;;1.83;1.00;;;20.20;48.60;;;;;;5050497;28;20060;-56
2023/01/10 04:36:51;;;;;;;2.95;1.10;;;20.20;48.70;;;;;;5048517;28;20087;-56
2023/01/10 04:39:17;;;;;;;2.60;1.30;;;20.10;49.40;;;;;;5049714;28;20056;-57
2023/01/10 04:41:43;;;;;;;3.40;1.15;;;20.10;48.60;;;;;;5031164;28;20040;-57
2023/01/10 04:44:08;;;;;;;2.30;0.88;;;20.10;48.70;;;;;;5049142;28;20036;-58
2023/01/10 04:46:34;;;;;;;2.38;1.27;;;20.10;48.60;;;;;;5050238;28;20549;-58
2023/01/10 04:49:00;;;;;;;3.28;1.52;;;20.10;48.70;;;;;;5055719;28;20044;-57
2023/01/10 04:51:26;;;;;;;2.85;0.98;;;20.10;48.70;;;;;;5049822;28;20053;-59
2023/01/10 04:53:52;;;;;;;3.20;1.40;;;20.10;48.70;;;;;;5049626;28;20048;-57
2023/01/10 04:56:20;;;;;;;2.45;1.08;;;20.10;48.60;;;;;;5048931;28;20150;-55
2023/01/10 04:58:46;;;;;;;3.60;1.73;;;20.10;48.80;;;;;;5081338;28;20410;-56
2023/01/10 05:01:19;;;;;;;2.15;1.00;;;20.10;48.60;;;;;;5048207;28;20131;-56
2023/01/10 05:03:47;;;;;;;3.10;1.02;;;20.10;48.70;;;;;;5051530;28;20143;-55
2023/01/10 05:06:13;;;;;;;2.50;1.23;;;20.10;48.60;;;;;;5049909;28;20053;-56
2023/01/10 05:08:39;;;;;;;3.10;1.20;;;20.10;48.70;;;;;;5051150;28;20068;-56
2023/01/10 05:11:05;;;;;;;4.32;1.30;;;20.00;48.70;;;;;;5052296;28;20049;-57
2023/01/10 05:13:30;;;;;;;2.45;1.10;;;20.00;48.70;;;;;;5049838;28;20072;-57
2023/01/10 05:15:57;;;;;;;3.55;1.10;;;20.00;48.70;;;;;;5048411;28;20072;-56
2023/01/10 05:18:27;;;;;;;2.55;1.10;;;20.00;48.70;;;;;;5049266;28;20098;-57
2023/01/10 05:20:59;;;;;;;2.28;1.00;;;20.00;48.60;;;;;;5049894;28;20045;-59
2023/01/10 05:23:25;;;;;;;2.00;0.95;;;20.00;48.70;;;;;;5081353;28;20415;-58
2023/01/10 05:25:50;;;;;;;3.50;1.50;;;20.00;48.70;;;;;;5049726;28;20583;-58
2023/01/10 05:28:16;;;;;;;2.42;0.88;;;20.00;48.70;;;;;;5030534;28;20076;-57
2023/01/10 05:30:41;;;;;;;2.15;0.85;;;20.00;48.70;;;;;;5079170;28;20045;-56
2023/01/10 05:33:07;;;;;;;2.70;1.48;;;20.00;48.70;;;;;;5048186;28;20041;-57
2023/01/10 05:35:33;;;;;;;3.17;1.23;;;19.90;48.70;;;;;;5048177;28;20202;-56
2023/01/10 05:37:59;;;;;;;4.18;1.30;;;19.90;48.70;;;;;;5046384;28;20044;-57
2023/01/10 05:40:24;;;;;;;3.45;1.10;;;19.90;48.70;;;;;;5048561;28;20045;-56
2023/01/10 05:42:50;;;;;;;4.55;1.65;;;19.90;48.70;;;;;;5048025;28;20040;-57
2023/01/10 05:45:15;;;;;;;2.28;1.00;;;19.90;48.70;;;;;;5049506;28;20202;-58
2023/01/10 05:47:41;;;;;;;2.90;1.10;;;19.90;48.90;;;;;;5048142;28;20037;-57
2023/01/10 05:50:08;;;;;;;3.08;1.05;;;19.90;48.90;;;;;;5034377;28;20052;-57
2023/01/10 05:52:33;;;;;;;2.75;1.00;;;19.90;48.90;;;;;;5064046;28;20048;-57
2023/01/10 05:54:59;;;;;;;2.80;1.25;;;19.90;48.80;;;;;;5052833;28;20052;-56
2023/01/10 05:57:25;;;;;;;2.72;1.13;;;19.90;48.90;;;;;;5053347;28;20043;-59
2023/01/10 05:59:51;;;;;;;3.55;1.10;;;19.90;48.90;;;;;;5052443;28;20047;-57
2023/01/10 06:02:16;;;;;;;3.67;1.20;;;19.90;48.90;;;;;;5084627;28;20446;-56
2023/01/10 06:04:42;;;;;;;3.47;1.27;;;19.90;49.20;;;;;;5053663;28;20072;-56
2023/01/10 06:07:08;;;;;;;3.70;1.55;;;19.90;48.90;;;;;;5050794;28;20074;-58
2023/01/10 06:09:33;;;;;;;2.85;1.00;;;19.90;48.90;;;;;;5053559;28;20055;-56
2023/01/10 06:11:59;;;;;;;2.95;1.35;;;19.90;49.00;;;;;;5049283;28;20489;-59
2023/01/10 06:14:25;;;;;;;4.95;1.35;;;19.90;48.90;;;;;;5053223;28;20051;-56
2023/01/10 06:16:50;;;;;;;2.72;0.90;;;19.80;48.90;;;;;;5082476;28;20170;-58
2023/01/10 06:19:16;;;;;;;3.05;1.08;;;19.90;49.00;;;;;;5053040;28;20056;-56
2023/01/10 06:21:42;;;;;;;4.20;1.30;;;19.80;48.90;;;;;;5050082;28;20032;-57
2023/01/10 06:24:08;;;;;;;3.47;1.13;;;19.80;48.90;;;;;;5085732;28;20072;-57
2023/01/10 06:26:34;;;;;;;2.80;1.15;;;19.80;48.90;;;;;;5083555;28;20052;-56
2023/01/10 06:28:59;;;;;;;6.32;1.15;;;19.80;48.90;;;;;;5053187;28;20036;-58
2023/01/10 06:31:25;;;;;;;3.63;1.15;;;19.80;48.90;;;;;;5051365;28;20044;-56
2023/01/10 06:33:51;;;;;;;3.10;1.13;;;19.80;48.90;;;;;;5051098;28;20127;-56
2023/01/10 06:36:18;;;;;;;3.28;1.23;;;19.80;49.00;;;;;;5049180;28;20469;-57
2023/01/10 06:38:44;;;;;;;2.65;1.10;;;19.80;49.00;;;;;;5050743;28;20044;-57
2023/01/10 06:41:12;;;;;;;2.33;1.02;;;19.80;49.00;;;;;;5058049;28;20127;-58
2023/01/10 06:43:45;;;;;;;3.60;1.08;;;19.80;49.20;;;;;;5052666;28;20067;-61
2023/01/10 06:46:12;;;;;;;3.38;1.10;;;19.80;49.10;;;;;;5054354;28;20127;-59
2023/01/10 06:48:38;;;;;;;4.80;1.27;;;19.80;49.00;;;;;;5050601;28;20051;-57
2023/01/10 06:51:05;;;;;;;3.00;0.98;;;19.80;49.00;;;;;;5045922;28;20107;-57
2023/01/10 06:53:31;;;;;;;4.30;1.48;;;19.80;49.10;;;;;;5048255;28;20073;-58
2023/01/10 06:55:57;;;;;;;5.97;1.50;;;19.80;49.10;;;;;;5048676;28;20056;-57
2023/01/10 06:58:23;;;;;;;4.68;1.17;;;19.80;49.20;;;;;;5048567;28;20451;-58
2023/01/10 07:00:50;;;;;;;4.32;1.10;;;19.80;49.50;;;;;;5082178;28;20040;-58
2023/01/10 07:03:16;;;;;;;3.88;1.45;;;19.90;49.30;;;;;;5081574;28;20450;-56
2023/01/10 07:05:41;;;;;;;5.25;1.13;;;20.30;49.00;;;;;;5048601;28;20102;-55
2023/01/10 07:08:07;;;;;;;4.97;1.63;;;20.50;48.50;;;;;;5049293;28;20047;-57
2023/01/10 07:10:33;;;;;;;3.28;1.13;;;20.70;48.10;;;;;;5050956;28;20041;-58
2023/01/10 07:12:59;;;;;;;3.30;1.15;;;20.90;47.80;;;;;;5050305;28;20087;-56
2023/01/10 07:15:26;;;;;;;4.15;1.42;;;21.00;47.50;;;;;;5081933;28;20048;-55
2023/01/10 07:17:52;;;;;;;4.28;1.70;;;21.10;47.20;;;;;;5050666;28;20086;-56
2023/01/10 07:20:18;;;;;;;4.20;1.17;;;21.30;47.10;;;;;;5049615;28;20475;-57
2023/01/10 07:22:44;;;;;;;4.07;1.45;;;21.30;46.80;;;;;;5049247;28;20056;-56
2023/01/10 07:25:10;;;;;;;3.25;1.33;;;21.40;46.80;;;;;;5047927;28;20094;-58
2023/01/10 07:27:35;;;;;;;3.70;1.20;;;21.40;46.70;;;;;;5079794;28;20147;-58
2023/01/10 07:30:01;;;;;;;3.28;1.45;;;21.50;46.80;;;;;;5050311;28;20106;-59
2023/01/10 07:32:27;;;;;;;5.18;1.63;;;21.50;46.70;;;;;;5050281;28;20025;-57
2023/01/10 07:34:53;;;;;;;5.10;1.50;;;21.50;46.70;;;;;;5035455;28;20411;-57
2023/01/10 07:37:18;;;;;;;5.53;1.70;;;21.60;46.70;;;;;;5047703;28;20052;-57
2023/01/10 07:39:44;;;;;;;6.20;1.55;;;21.60;46.70;;;;;;5049417;28;20328;-57
2023/01/10 07:42:10;;;;;;;7.30;1.98;;;21.60;46.80;;;;;;5047473;28;20086;-57
2023/01/10 07:44:35;;;;;;;5.50;1.52;;;21.60;46.90;;;;;;5050209;28;20048;-57
2023/01/10 07:47:01;;;;;;;5.30;1.83;;;21.70;47.00;;;;;;5050654;28;20073;-57
2023/01/10 07:49:27;;;;;;;6.55;1.80;;;21.70;47.10;;;;;;5049589;28;20139;-56
2023/01/10 07:51:53;;;;;;;6.97;1.60;;;21.70;47.10;;;;;;5079932;28;20087;-55
2023/01/10 07:54:19;;;;;;;4.93;1.58;;;21.70;47.10;;;;;;5051604;28;20044;-58
2023/01/10 07:56:46;;;;;;;4.93;1.63;;;21.70;47.10;;;;;;5049774;28;20048;-56
2023/01/10 07:59:12;;;;;;;4.38;1.42;;;21.70;47.00;;;;;;5048671;28;20040;-56
2023/01/10 08:01:38;;;;;;;5.78;1.50;;;21.70;47.00;;;;;;5047958;28;20053;-56
2023/01/10 08:04:04;;;;;;;5.00;1.30;;;21.70;47.00;;;;;;5049170;28;20107;-56
2023/01/10 08:06:30;;;;;;;5.22;1.60;;;21.80;46.90;;;;;;5049087;28;20040;-57
2023/01/10 08:08:56;;;;;;;4.10;1.25;;;21.80;46.80;;;;;;5051571;28;20043;-57
2023/01/10 08:11:22;;;;;;;5.25;1.92;;;21.80;46.80;;;;;;5050169;28;20049;-56
2023/01/10 08:13:48;;;;;;;3.88;1.48;;;21.80;46.70;;;;;;5083217;28;20045;-56
2023/01/10 08:16:14;;;;;;;6.28;1.73;;;21.80;46.70;;;;;;5051131;28;20110;-57
2023/01/10 08:18:41;;;;;;;3.10;1.23;;;21.80;46.60;;;;;;5079026;28;20147;-59
2023/01/10 08:21:08;;;;;;;3.80;1.63;;;21.80;46.60;;;;;;5047961;28;20127;-59
2023/01/10 08:23:34;;;;;;;3.83;1.52;;;21.90;46.70;;;;;;5082068;28;20417;-58
2023/01/10 08:26:00;;;;;;;4.78;1.73;;;21.80;46.80;;;;;;5046892;28;20040;-59
2023/01/10 08:28:27;;;;;;;5.57;1.50;;;21.80;46.70;;;;;;5048843;28;20120;-58
2023/01/10 08:30:54;;;;;;;5.13;1.80;;;21.90;46.80;;;;;;5052778;28;20049;-59
2023/01/10 08:33:26;;;;;;;5.80;1.70;;;21.90;46.80;;;;;;5046228;28;20049;-57
2023/01/10 08:35:52;;;;;;;3.97;1.60;;;21.90;46.70;;;;;;5047656;28;20036;-58
2023/01/10 08:38:17;;;;;;;3.63;1.45;;;21.90;46.80;;;;;;5078488;28;20048;-59
2023/01/10 08:40:43;;;;;;;5.20;1.58;;;21.90;46.70;;;;;;5048583;28;20045;-56
2023/01/10 08:43:10;;;;;;;4.32;1.48;;;21.90;46.70;;;;;;5048841;28;20036;-56
2023/01/10 08:45:36;;;;;;;4.70;1.60;;;21.90;46.70;;;;;;5056401;28;20055;-58
2023/01/10 08:48:03;;;;;;;7.53;1.77;;;21.90;46.70;;;;;;5048846;28;20049;-57
2023/01/10 08:50:30;;;;;;;4.90;1.70;;;21.90;46.60;;;;;;5082652;28;20043;-57
2023/01/10 08:52:59;;;;;;;7.28;1.63;;;21.90;46.40;;;;;;5049850;28;20047;-58
2023/01/10 08:55:26;;;;;;;6.32;2.13;;;21.90;46.40;;;;;;5048244;28;20044;-58
2023/01/10 08:57:52;;;;;;;6.05;1.92;;;21.80;46.30;;;;;;5049636;28;20041;-58
2023/01/10 09:00:18;;;;;;;4.22;1.98;;;21.90;46.30;;;;;;5050354;28;20040;-57
2023/01/10 09:02:44;;;;;;;4.25;1.77;;;21.90;46.20;;;;;;5049543;28;20052;-58
2023/01/10 09:05:10;;;;;;;5.65;1.73;;;21.90;46.10;;;;;;5052845;28;20040;-57
2023/01/10 09:07:36;;;;;;;6.80;1.83;;;21.90;46.00;;;;;;5048214;28;20485;-58
2023/01/10 09:10:03;;;;;;;6.10;1.63;;;21.90;45.90;;;;;;5050287;28;20048;-57
2023/01/10 09:15:13;;;;;;;6.10;1.70;;;21.90;45.80;;;;;;5048851;28;20048;-56
2023/01/10 09:17:39;;;;;;;4.70;2.20;;;21.90;45.70;;;;;;5048328;28;20033;-57
2023/01/10 09:20:08;;;;;;;8.75;2.53;;;21.90;45.60;;;;;;5047824;28;20477;-56
2023/01/10 09:22:35;;;;;;;5.55;1.85;;;21.90;45.60;;;;;;5050512;28;20084;-56
2023/01/10 09:25:01;;;;;;;7.40;2.08;;;21.90;45.50;;;;;;5048759;28;20079;-58
2023/01/10 09:27:27;;;;;;;6.43;2.28;;;21.90;45.40;;;;;;5050943;28;20057;-57
2023/01/10 09:29:52;;;;;;;5.60;2.10;;;21.90;45.30;;;;;;5055076;28;20048;-55
2023/01/10 09:32:18;;;;;;;6.45;2.40;;;21.90;45.30;;;;;;5052091;28;20041;-56
2023/01/10 09:34:44;;;;;;;6.38;2.15;;;21.90;45.20;;;;;;5053589;28;20063;-56
2023/01/10 09:37:10;;;;;;;6.93;2.28;;;21.90;45.10;;;;;;5052818;28;20041;-57
2023/01/10 09:39:35;;;;;;;5.43;1.90;;;21.90;45.10;;;;;;5054382;28;20167;-56
2023/01/10 09:42:07;;;;;;;4.22;1.85;;;21.90;45.00;;;;;;5052871;28;20676;-58
2023/01/10 09:44:57;;;;;;;6.10;1.98;;;21.90;44.90;;;;;;5052804;28;20055;-57
2023/01/10 09:47:53;;;;;;;7.57;2.30;;;21.90;44.90;;;;;;5083792;28;20058;-57
2023/01/10 09:50:39;;;;;;;7.47;2.50;;;21.90;44.80;;;;;;5052286;28;20048;-56
2023/01/10 09:53:20;;;;;;;6.22;2.38;;;21.90;44.90;;;;;;5044394;28;20060;-57
2023/01/10 09:55:53;;;;;;;5.15;2.33;;;21.90;44.90;;;;;;5052582;28;20120;-57
2023/01/10 09:58:23;;;;;;;5.65;2.22;;;21.90;44.90;;;;;;5052375;28;20106;-56
2023/01/10 10:01:05;;;;;;;6.82;2.22;;;21.90;44.90;;;;;;5051698;28;20390;-57
2023/01/10 10:04:03;;;;;;;5.47;2.22;;;21.90;44.70;;;;;;5068878;28;20516;-57
2023/01/10 10:06:29;;;;;;;6.47;2.25;;;22.00;44.80;;;;;;5052299;28;20507;-57
2023/01/10 10:08:56;;;;;;;6.10;2.47;;;22.00;44.90;;;;;;5053256;28;20033;-57
2023/01/10 10:11:25;;;;;;;8.38;2.78;;;22.00;44.80;;;;;;5034619;28;20062;-56
2023/01/10 10:13:54;;;;;;;5.47;2.40;;;21.90;44.70;;;;;;5067493;28;20048;-57
2023/01/10 10:16:39;;;;;;;7.00;2.60;;;21.90;44.70;;;;;;5050227;28;20131;-58
2023/01/10 10:19:29;;;;;;;4.88;2.20;;;21.90;44.70;;;;;;5051557;28;20056;-57
2023/01/10 10:22:27;;;;;;;5.22;2.03;;;21.90;44.80;;;;;;5034829;28;20051;-58
2023/01/10 10:24:53;;;;;;;6.32;2.58;;;21.90;44.90;;;;;;5055466;28;20080;-56
2023/01/10 10:27:35;;;;;;;7.60;2.60;;;22.00;45.10;;;;;;5050573;28;20059;-57
2023/01/10 10:30:17;;;;;;;5.40;2.05;;;22.00;45.00;;;;;;5051138;28;20055;-57
2023/01/10 10:32:59;;;;;;;5.60;2.20;;;22.00;45.00;;;;;;5051045;28;20056;-57
2023/01/10 10:35:30;;;;;;;5.30;2.13;;;22.00;45.00;;;;;;5048794;28;20071;-58
2023/01/10 10:38:02;;;;;;;6.13;2.25;;;22.10;45.10;;;;;;5052501;28;20494;-58
2023/01/10 10:40:32;;;;;;;6.43;2.15;;;22.00;45.00;;;;;;5051106;28;20041;-57
2023/01/10 10:43:11;;;;;;;7.22;2.00;;;22.10;45.10;;;;;;5082451;27;20105;-58
2023/01/10 10:45:58;;;;;;;5.70;2.40;;;22.10;45.10;;;;;;5049463;28;20136;-57
2023/01/10 10:48:32;;;;;;;6.75;2.05;;;22.10;45.00;;;;;;5051722;28;20055;-57
2023/01/10 10:51:28;;;;;;;3.85;2.05;;;22.10;45.30;;;;;;5050957;28;20514;-58
2023/01/10 10:53:55;;;;;;;5.60;2.42;;;22.10;45.20;;;;;;5051829;28;20040;-58
2023/01/10 10:56:24;;;;;;;6.90;2.22;;;22.10;45.20;;;;;;5051577;28;20075;-59
2023/01/10 10:58:56;;;;;;;5.93;2.22;;;22.10;45.20;;;;;;5050030;28;20958;-57
2023/01/10 11:01:23;;;;;;;4.60;2.15;;;22.20;45.30;;;;;;5054513;28;20045;-58
2023/01/10 11:03:59;;;;;;;4.53;1.90;;;22.10;45.20;;;;;;5054298;28;20052;-56
2023/01/10 11:06:28;;;;;;;6.22;2.13;;;22.10;45.10;;;;;;5051736;28;20045;-56
2023/01/10 11:08:57;;;;;;;5.82;2.00;;;22.10;45.00;;;;;;5052468;28;20689;-61
2023/01/10 11:11:27;;;;;;;4.20;2.35;;;22.10;45.00;;;;;;5052757;28;20115;-59
2023/01/10 11:13:56;;;;;;;5.00;1.83;;;22.10;45.10;;;;;;5052842;28;20595;-57
2023/01/10 11:16:30;;;;;;;4.20;1.85;;;22.10;45.10;;;;;;5052062;28;20037;-57
2023/01/10 11:19:08;;;;;;;5.53;2.25;;;22.10;45.00;;;;;;5053493;28;20032;-60
2023/01/10 11:21:34;;;;;;;5.50;2.00;;;22.10;44.90;;;;;;5051499;28;20099;-57
2023/01/10 11:24:01;;;;;;;4.82;1.95;;;22.10;45.00;;;;;;5051377;28;20037;-60
2023/01/10 11:26:33;;;;;;;6.60;1.98;;;22.10;44.90;;;;;;5082586;28;20052;-57
2023/01/10 11:29:23;;;;;;;4.68;1.67;;;22.10;44.90;;;;;;5050567;28;20096;-58
2023/01/10 11:31:50;;;;;;;4.65;1.88;;;22.10;44.80;;;;;;5052363;28;20040;-58
2023/01/10 11:34:24;;;;;;;6.05;2.33;;;22.10;44.90;;;;;;5051780;28;20040;-57
2023/01/10 11:36:59;;;;;;;4.65;1.95;;;22.10;44.80;;;;;;5049725;28;20049;-60
2023/01/10 11:39:25;;;;;;;8.23;2.15;;;22.10;44.80;;;;;;5084010;28;20764;-56
2023/01/10 11:41:52;;;;;;;4.97;2.20;;;22.00;44.70;;;;;;5050948;28;20956;-57
2023/01/10 11:44:26;;;;;;;4.95;2.20;;;22.00;44.60;;;;;;5057999;28;20040;-57
2023/01/10 11:46:57;;;;;;;5.65;2.25;;;22.00;44.50;;;;;;5050901;28;20124;-57
2023/01/10 11:49:42;;;;;;;4.32;1.80;;;22.00;44.50;;;;;;5051270;28;20044;-58
2023/01/10 11:52:23;;;;;;;5.38;2.10;;;22.00;44.30;;;;;;5083136;28;20051;-57
2023/01/10 11:54:49;;;;;;;4.97;2.20;;;22.00;44.20;;;;;;5049733;28;20502;-56
2023/01/10 11:57:22;;;;;;;7.13;2.80;;;22.00;44.40;;;;;;5049803;28;20085;-57
2023/01/10 12:00:06;;;;;;;7.35;2.75;;;22.00;44.20;;;;;;5049992;28;20122;-57
2023/01/10 12:02:44;;;;;;;6.50;2.53;;;22.00;44.20;;;;;;5055415;28;20048;-56
2023/01/10 12:05:20;;;;;;;10.20;2.67;;;21.90;44.40;;;;;;5048991;28;20071;-59
2023/01/10 12:08:00;;;;;;;6.47;2.28;;;21.90;44.40;;;;;;5057030;28;20049;-57
2023/01/10 12:10:27;;;;;;;9.60;4.00;;;22.00;44.20;;;;;;5050613;28;20052;-56
2023/01/10 12:12:58;;;;;;;8.98;3.17;;;22.00;44.30;;;;;;5050464;28;20066;-56
2023/01/10 12:15:29;;;;;;;7.20;2.40;;;22.00;44.30;;;;;;5050361;28;20052;-56
2023/01/10 12:17:58;;;;;;;7.38;2.80;;;22.00;44.20;;;;;;5049081;28;20070;-56
2023/01/10 12:20:27;;;;;;;7.07;2.38;;;22.00;44.20;;;;;;5048714;28;20045;-56
2023/01/10 12:23:05;;;;;;;7.40;2.47;;;22.00;44.20;;;;;;5050087;28;20051;-59
2023/01/10 12:25:37;;;;;;;8.30;2.55;;;22.00;44.10;;;;;;5049799;28;20128;-57
2023/01/10 12:28:03;;;;;;;5.15;2.20;;;22.00;44.10;;;;;;5078602;28;20053;-59
2023/01/10 12:30:42;;;;;;;7.13;2.50;;;22.00;44.20;;;;;;5048801;28;20126;-57
2023/01/10 12:33:18;;;;;;;6.60;2.70;;;22.00;44.30;;;;;;5081692;28;20139;-57
2023/01/10 12:36:22;;;;;;;13.73;2.60;;;22.00;44.50;;;;;;5047791;28;20508;-57
2023/01/10 12:39:01;;;;;;;7.72;2.70;;;22.00;44.40;;;;;;5050447;28;20048;-56
2023/01/10 12:44:44;;;;;;;6.97;2.20;;;22.00;44.60;;;;;;5049731;28;20095;-57
2023/01/10 12:47:33;;;;;;;7.55;2.58;;;22.10;44.70;;;;;;5049502;28;20529;-57
2023/01/10 12:50:37;;;;;;;7.90;2.40;;;22.00;44.60;;;;;;5051717;28;20044;-58
2023/01/10 12:53:27;;;;;;;10.68;2.40;;;22.10;44.50;;;;;;5048739;28;20052;-56
2023/01/10 12:55:56;;;;;;;7.38;2.10;;;22.10;44.50;;;;;;5082098;28;20072;-57
2023/01/10 12:58:26;;;;;;;6.95;2.20;;;22.10;44.50;;;;;;5049397;28;20076;-57
2023/01/10 13:00:59;;;;;;;6.55;2.67;;;22.10;44.50;;;;;;5050120;28;20123;-57
2023/01/10 13:03:28;;;;;;;6.63;2.38;;;22.10;44.50;;;;;;5048797;28;20050;-57
2023/01/10 13:05:56;;;;;;;7.32;2.17;;;22.10;44.50;;;;;;5050226;28;20455;-56
2023/01/10 13:08:25;;;;;;;4.43;2.40;;;22.10;44.50;;;;;;5049804;28;20063;-54
2023/01/10 13:10:54;;;;;;;6.50;2.40;;;22.10;44.50;;;;;;5050021;28;20041;-56
2023/01/10 13:13:28;;;;;;;7.53;2.40;;;22.10;44.50;;;;;;5049654;28;20052;-56
2023/01/10 13:16:00;;;;;;;6.10;2.45;;;22.10;44.40;;;;;;5040732;28;20045;-56
2023/01/10 13:18:29;;;;;;;5.47;1.90;;;22.10;44.40;;;;;;5050030;28;20045;-56
2023/01/10 13:21:04;;;;;;;6.45;2.75;;;22.10;44.40;;;;;;5050726;28;20076;-56